Time;durP1;ratioP1;P1;durP2;ratioP2;P2;SDS_P1;SDS_P2;PMS_P1;PMS_P2;Temp;Humidity;BMP_temperature;BMP_pressure;BME280_temperature;BME280_humidity;BME280_pressure;Samples;Min_cycle;Max_cycle;Signal;HPM_P1;HPM_P2
2022/06/19 00:00:08;;;;;;;;;1.33;1.33;;;;;22.18;49.18;98560.41;4940720;28;104081;-58
2022/06/19 00:02:35;;;;;;;;;0.67;0.67;;;;;22.17;48.88;98561.50;4925651;28;102616;-58
2022/06/19 00:05:03;;;;;;;;;1.00;1.00;;;;;22.16;49.35;98557.09;4925699;28;102463;-58
2022/06/19 00:07:30;;;;;;;;;2.00;2.00;;;;;22.16;48.90;98551.59;4876128;28;102185;-58
2022/06/19 00:09:57;;;;;;;;;1.00;1.00;;;;;22.17;49.04;98560.69;4922615;28;105009;-58
2022/06/19 00:12:24;;;;;;;;;1.00;1.00;;;;;22.16;49.15;98557.09;4920213;28;102243;-57
2022/06/19 00:14:52;;;;;;;;;1.00;1.00;;;;;22.16;48.81;98550.75;4936588;28;102430;-58
2022/06/19 00:17:19;;;;;;;;;1.67;1.67;;;;;22.16;49.15;98554.34;4943215;28;102110;-58
2022/06/19 00:19:46;;;;;;;;;1.33;1.33;;;;;22.15;48.94;98552.69;4934064;28;104053;-58
2022/06/19 00:22:14;;;;;;;;;2.00;1.00;;;;;22.15;48.89;98549.91;4937775;28;103295;-57
2022/06/19 00:24:41;;;;;;;;;1.00;1.00;;;;;22.15;48.87;98549.13;4942466;28;102325;-58
2022/06/19 00:27:08;;;;;;;;;1.67;1.67;;;;;22.15;49.08;98552.69;4942032;28;102579;-58
2022/06/19 00:29:36;;;;;;;;;1.33;1.00;;;;;22.14;48.74;98542.78;4941015;28;104028;-58
2022/06/19 00:32:07;;;;;;;;;1.33;1.33;;;;;22.15;49.09;98544.41;4941506;28;102512;-58
2022/06/19 00:34:35;;;;;;;;;1.00;1.00;;;;;22.15;49.12;98546.38;4936667;28;103217;-58
2022/06/19 00:37:03;;;;;;;;;0.67;0.67;;;;;22.14;49.11;98542.78;4938409;28;102510;-58
2022/06/19 00:39:32;;;;;;;;;1.00;1.00;;;;;22.14;48.72;98542.78;4940297;28;109134;-58
2022/06/19 00:41:59;;;;;;;;;2.00;2.00;;;;;22.13;48.83;98530.13;4933204;28;102158;-58
2022/06/19 00:44:27;;;;;;;;;2.00;1.33;;;;;22.13;48.73;98538.38;4937863;28;102280;-58
2022/06/19 00:47:08;;;;;;;;;1.00;1.00;;;;;22.13;49.29;98545.81;4940477;28;102468;-58
2022/06/19 00:49:36;;;;;;;;;0.67;0.67;;;;;22.11;48.91;98537.81;4933894;28;108770;-57
2022/06/19 00:52:09;;;;;;;;;3.00;2.00;;;;;22.11;49.25;98537.00;4929482;28;102180;-58
2022/06/19 00:54:41;;;;;;;;;2.00;1.33;;;;;22.11;49.40;98526.00;4935926;28;102267;-58
2022/06/19 00:57:08;;;;;;;;;2.33;2.00;;;;;22.11;48.99;98529.56;4927403;28;103251;-59
2022/06/19 00:59:39;;;;;;;;;0.67;0.67;;;;;22.10;49.10;98530.69;4939977;28;104022;-58
2022/06/19 01:02:06;;;;;;;;;1.33;1.33;;;;;22.11;48.91;98537.00;4922954;28;102194;-58
2022/06/19 01:04:37;;;;;;;;;1.00;1.00;;;;;22.11;48.86;98529.56;4900309;28;103913;-57
2022/06/19 01:07:05;;;;;;;;;0.00;0.00;;;;;22.10;49.18;98519.66;4901852;28;104026;-58
2022/06/19 01:09:32;;;;;;;;;1.00;1.00;;;;;22.10;49.08;98525.16;4920171;28;104066;-58
2022/06/19 01:12:01;;;;;;;;;0.67;0.67;;;;;22.09;49.11;98515.25;4839562;28;102185;-58
2022/06/19 01:14:28;;;;;;;;;1.00;1.00;;;;;22.09;49.10;98523.50;4920670;28;102538;-58
2022/06/19 01:16:55;;;;;;;;;1.00;1.00;;;;;22.10;49.07;98514.16;4897009;28;102611;-58
2022/06/19 01:19:28;;;;;;;;;1.00;1.00;;;;;22.09;49.44;98518.00;4950338;28;103905;-58
2022/06/19 01:22:09;;;;;;;;;2.00;1.00;;;;;22.08;49.19;98512.75;4937866;28;102221;-58
2022/06/19 01:24:53;;;;;;;;;1.67;1.67;;;;;22.07;49.24;98514.69;4917748;28;102188;-58
2022/06/19 01:30:06;;;;;;;;;1.33;1.33;;;;;22.08;49.22;98515.50;4939051;28;104056;-58
2022/06/19 01:32:35;;;;;;;;;2.00;2.00;;;;;22.08;49.16;98515.50;4919396;28;102315;-58
2022/06/19 01:35:02;;;;;;;;;2.00;2.00;;;;;22.08;49.34;98502.56;4930352;28;104276;-58
2022/06/19 01:37:30;;;;;;;;;2.00;1.67;;;;;22.07;49.27;98513.84;4925162;28;102498;-58
2022/06/19 01:40:01;;;;;;;;;2.00;2.00;;;;;22.05;49.29;98500.38;4941191;28;104221;-57
2022/06/19 01:42:29;;;;;;;;;1.00;1.00;;;;;22.06;48.92;98513.06;4953243;28;102543;-58
2022/06/19 01:44:56;;;;;;;;;2.00;2.00;;;;;22.07;48.97;98511.94;4936273;28;102470;-58
2022/06/19 01:47:24;;;;;;;;;2.33;2.33;;;;;22.06;48.94;98515.81;4938681;28;102408;-57
2022/06/19 01:49:53;;;;;;;;;1.67;1.67;;;;;22.07;49.19;98509.19;4934528;28;109872;-57
2022/06/19 01:52:21;;;;;;;;;1.00;1.00;;;;;22.06;49.02;98506.72;4933793;28;102228;-58
2022/06/19 01:54:53;;;;;;;;;1.33;1.33;;;;;22.04;49.11;98495.97;4959729;28;102127;-58
2022/06/19 01:57:20;;;;;;;;;2.00;2.00;;;;;22.04;49.06;98495.97;4938328;28;102174;-58
2022/06/19 01:59:48;;;;;;;;;1.33;1.33;;;;;22.03;49.12;98494.31;4955541;28;104278;-58
2022/06/19 02:02:15;;;;;;;;;1.00;1.00;;;;;22.03;49.45;98486.06;4931061;28;102153;-57
2022/06/19 02:04:42;;;;;;;;;1.67;0.67;;;;;22.04;49.27;98493.22;4947429;28;103049;-58
2022/06/19 02:07:12;;;;;;;;;2.00;2.00;;;;;22.04;49.29;98489.63;4940948;28;102642;-57
2022/06/19 02:09:39;;;;;;;;;2.33;1.67;;;;;22.03;48.99;98491.56;4942716;28;104098;-57
2022/06/19 02:12:07;;;;;;;;;1.67;1.67;;;;;22.03;49.09;98483.31;4935264;28;106356;-57
2022/06/19 02:14:34;;;;;;;;;2.00;2.00;;;;;22.02;49.49;98489.91;4934939;28;102303;-57
2022/06/19 02:17:06;;;;;;;;;1.00;1.00;;;;;22.03;49.31;98487.97;4954233;28;102257;-58
2022/06/19 02:19:34;;;;;;;;;4.00;3.00;;;;;22.02;49.07;98487.16;4964859;28;104029;-58
2022/06/19 02:22:01;;;;;;;;;2.00;1.33;;;;;22.02;49.32;98483.59;4937159;28;102498;-58
2022/06/19 02:24:28;;;;;;;;;2.67;2.67;;;;;22.02;49.25;98478.91;4931559;28;102418;-58
2022/06/19 02:26:56;;;;;;;;;3.00;3.00;;;;;22.02;49.37;98478.91;4945047;28;102710;-57
2022/06/19 02:29:23;;;;;;;;;1.00;1.00;;;;;22.01;49.00;98480.03;4947686;28;104133;-58
2022/06/19 02:31:53;;;;;;;;;1.00;1.00;;;;;22.01;49.34;98488.28;4934369;28;102615;-58
2022/06/19 02:34:32;;;;;;;;;1.00;1.00;;;;;22.01;48.98;98477.28;4955663;28;102230;-58
2022/06/19 02:37:01;;;;;;;;;2.00;2.00;;;;;22.01;49.26;98477.28;4942257;28;102646;-57
2022/06/19 02:39:57;;;;;;;;;1.00;1.00;;;;;22.02;49.17;98486.34;4938783;28;104614;-58
2022/06/19 02:42:32;;;;;;;;;1.67;1.67;;;;;22.01;49.22;98487.44;4934971;28;102291;-57
2022/06/19 02:45:01;;;;;;;;;2.00;2.00;;;;;22.01;48.85;98488.28;4932979;28;102118;-58
2022/06/19 02:47:31;;;;;;;;;3.00;3.00;;;;;22.01;49.05;98492.97;4945723;28;102066;-57
2022/06/19 02:49:58;;;;;;;;;1.00;1.00;;;;;22.00;49.03;98491.31;4943691;28;104199;-57
2022/06/19 02:52:25;;;;;;;;;2.00;1.67;;;;;22.00;49.20;98483.03;4935294;28;102029;-58
2022/06/19 02:54:53;;;;;;;;;2.67;2.33;;;;;21.99;49.44;98490.47;4939180;28;102372;-58
2022/06/19 02:57:20;;;;;;;;;2.00;2.00;;;;;21.99;49.03;98495.16;4944487;28;102183;-58
2022/06/19 02:59:47;;;;;;;;;2.67;2.00;;;;;21.99;49.60;98490.47;4940385;28;104233;-58
2022/06/19 03:02:14;;;;;;;;;2.00;2.00;;;;;21.99;49.20;98498.72;4938971;28;102053;-57
2022/06/19 03:04:50;;;;;;;;;2.00;2.00;;;;;21.99;48.93;98495.16;4927388;28;102211;-58
2022/06/19 03:07:17;;;;;;;;;2.33;1.67;;;;;21.98;49.08;98494.31;4952952;28;102740;-58
2022/06/19 03:09:45;;;;;;;;;2.67;2.67;;;;;21.98;49.10;98494.31;4944685;28;109858;-57
2022/06/19 03:12:12;;;;;;;;;2.00;2.00;;;;;21.98;49.11;98499.81;4945848;28;103002;-58
2022/06/19 03:14:41;;;;;;;;;2.33;2.33;;;;;21.97;49.21;98489.13;4941808;28;102358;-57
2022/06/19 03:17:13;;;;;;;;;2.00;2.00;;;;;21.98;49.40;98499.81;4943479;28;105570;-57
2022/06/19 03:19:41;;;;;;;;;3.33;1.67;;;;;21.96;49.29;98499.28;4935212;28;104136;-57
2022/06/19 03:22:09;;;;;;;;;2.67;2.67;;;;;21.96;48.94;98499.28;4941329;28;105675;-57
2022/06/19 03:24:36;;;;;;;;;2.00;1.67;;;;;21.96;49.05;98495.72;4942300;28;102442;-57
2022/06/19 03:27:09;;;;;;;;;1.33;1.33;;;;;21.96;49.18;98498.47;4942842;28;102394;-57
2022/06/19 03:29:36;;;;;;;;;3.00;2.00;;;;;21.95;49.37;98494.88;4945705;28;104197;-58
2022/06/19 03:32:04;;;;;;;;;2.00;2.00;;;;;21.95;49.50;98494.88;4944873;28;102242;-57
2022/06/19 03:34:31;;;;;;;;;1.33;1.33;;;;;21.95;49.36;98489.38;4943295;28;102265;-57
2022/06/19 03:36:58;;;;;;;;;3.00;1.67;;;;;21.95;49.69;98488.56;4941741;28;102110;-57
2022/06/19 03:39:25;;;;;;;;;3.00;3.00;;;;;21.95;49.44;98500.41;4946668;28;104155;-57
2022/06/19 03:41:52;;;;;;;;;2.33;2.00;;;;;21.95;49.67;98485.81;4944792;28;102176;-58
2022/06/19 03:44:19;;;;;;;;;3.00;3.00;;;;;21.95;49.14;98491.31;4938813;28;102447;-58
2022/06/19 03:46:47;;;;;;;;;2.00;2.00;;;;;21.95;49.36;98486.63;4948358;28;102423;-58
2022/06/19 03:49:14;;;;;;;;;2.00;2.00;;;;;21.96;49.06;98488.28;4940611;28;108860;-58
2022/06/19 03:51:41;;;;;;;;;1.33;1.33;;;;;21.96;49.25;98493.78;4946450;28;102447;-57
2022/06/19 03:54:09;;;;;;;;;1.67;1.67;;;;;21.95;49.45;98483.03;4939462;28;102581;-58
2022/06/19 03:56:36;;;;;;;;;2.33;1.67;;;;;21.95;49.39;98483.03;4944442;28;102462;-57
2022/06/19 03:59:09;;;;;;;;;3.00;3.00;;;;;21.94;49.06;98476.72;4942640;28;104361;-58
2022/06/19 04:01:39;;;;;;;;;2.00;2.00;;;;;21.95;49.58;98489.38;4970024;28;102028;-57
2022/06/19 04:04:06;;;;;;;;;2.00;2.00;;;;;21.94;49.08;98484.97;4976475;28;102338;-58
2022/06/19 04:06:35;;;;;;;;;1.00;1.00;;;;;21.93;49.46;98483.31;4940007;28;102636;-57
2022/06/19 04:09:03;;;;;;;;;2.67;2.33;;;;;21.93;49.40;98491.56;4933541;28;104054;-57
2022/06/19 04:11:30;;;;;;;;;2.33;2.00;;;;;21.93;49.45;98480.56;4932681;28;104363;-57
2022/06/19 04:13:58;;;;;;;;;2.33;2.33;;;;;21.93;49.26;98486.06;4945496;28;103340;-57
2022/06/19 04:16:28;;;;;;;;;2.00;2.00;;;;;21.93;49.18;98485.25;4939922;28;102586;-58
2022/06/19 04:18:55;;;;;;;;;1.00;1.00;;;;;21.93;49.51;98483.31;4931848;28;104895;-57
2022/06/19 04:21:27;;;;;;;;;3.00;2.00;;;;;21.94;49.29;98476.72;4938958;28;102302;-58
2022/06/19 04:23:56;;;;;;;;;1.00;1.00;;;;;21.94;49.48;98484.97;4944969;28;102813;-57
2022/06/19 04:26:24;;;;;;;;;2.00;2.00;;;;;21.93;49.44;98469.53;4939936;28;102550;-58
2022/06/19 04:28:51;;;;;;;;;3.00;3.00;;;;;21.94;49.55;98473.94;4937884;28;104090;-58
2022/06/19 04:31:18;;;;;;;;;2.00;2.00;;;;;21.94;49.03;98468.44;4947353;28;102373;-57
2022/06/19 04:33:46;;;;;;;;;2.67;2.67;;;;;21.94;49.49;98473.13;4933912;28;102009;-57
2022/06/19 04:36:14;;;;;;;;;2.67;2.00;;;;;21.93;49.06;98469.53;4940295;28;102579;-57
2022/06/19 04:38:43;;;;;;;;;2.00;2.00;;;;;21.93;49.33;98468.75;4939625;28;104085;-57
2022/06/19 04:41:15;;;;;;;;;1.33;1.33;;;;;21.94;49.00;98465.69;4946585;28;102504;-57
2022/06/19 04:43:42;;;;;;;;;2.67;2.67;;;;;21.94;49.00;98462.94;4940370;28;102483;-58
2022/06/19 04:46:09;;;;;;;;;2.00;1.67;;;;;21.94;49.02;98462.13;4936630;28;102266;-58
2022/06/19 04:48:37;;;;;;;;;2.67;2.00;;;;;21.94;49.21;98460.19;4938361;28;104419;-58
2022/06/19 04:51:04;;;;;;;;;2.00;2.00;;;;;21.95;49.28;98456.34;4944533;28;102872;-57
2022/06/19 04:53:37;;;;;;;;;2.33;2.33;;;;;21.95;49.29;98452.75;4944469;28;102193;-57
2022/06/19 04:56:06;;;;;;;;;2.00;2.00;;;;;21.95;49.43;98461.84;4938098;28;102247;-57
2022/06/19 04:58:33;;;;;;;;;2.00;2.00;;;;;21.96;49.11;98457.16;4950735;28;104216;-58
2022/06/19 05:01:05;;;;;;;;;3.00;3.00;;;;;21.96;49.14;98458.00;4941072;28;102050;-57
2022/06/19 05:03:32;;;;;;;;;2.00;2.00;;;;;21.97;49.08;98453.31;4936748;28;102565;-58
2022/06/19 05:06:03;;;;;;;;;2.00;1.67;;;;;21.96;49.27;98449.75;4943016;28;104638;-58
2022/06/19 05:08:32;;;;;;;;;2.00;2.00;;;;;21.97;48.96;98447.81;4944542;28;104054;-58
2022/06/19 05:10:59;;;;;;;;;2.00;2.00;;;;;21.97;49.39;98453.31;4944227;28;102245;-58
2022/06/19 05:13:26;;;;;;;;;2.67;2.67;;;;;21.98;49.24;98449.44;4940304;28;102121;-58
2022/06/19 05:16:04;;;;;;;;;3.00;3.00;;;;;21.97;49.42;98443.13;4937728;28;102530;-59
2022/06/19 05:18:32;;;;;;;;;2.00;2.00;;;;;21.99;49.30;98448.34;4933948;28;105131;-57
2022/06/19 05:21:04;;;;;;;;;2.00;1.67;;;;;21.97;49.36;98437.63;4938144;28;102162;-58
2022/06/19 05:23:32;;;;;;;;;1.00;1.00;;;;;21.97;48.93;98432.13;4919077;28;102217;-57
2022/06/19 05:26:04;;;;;;;;;3.67;3.00;;;;;21.97;49.12;98439.56;4932540;28;102204;-58
2022/06/19 05:28:31;;;;;;;;;1.67;1.67;;;;;21.98;49.19;98436.50;4932630;28;104436;-57
2022/06/19 05:30:59;;;;;;;;;2.00;2.00;;;;;21.99;48.81;98434.56;4943587;28;102334;-58
2022/06/19 05:33:26;;;;;;;;;2.33;2.33;;;;;21.99;48.75;98445.59;4935108;28;102282;-58
2022/06/19 05:35:54;;;;;;;;;3.00;3.00;;;;;21.99;49.38;98438.16;4931663;28;102662;-58
2022/06/19 05:38:21;;;;;;;;;2.00;2.00;;;;;21.99;49.20;98435.41;4945387;28;104092;-58
2022/06/19 05:40:52;;;;;;;;;3.00;2.00;;;;;22.00;49.06;98431.56;4936631;28;102176;-58
2022/06/19 05:43:20;;;;;;;;;2.00;2.00;;;;;22.01;48.75;98432.38;4934011;28;102353;-57
2022/06/19 05:45:50;;;;;;;;;3.00;3.00;;;;;22.00;48.82;98427.97;4934840;28;102528;-57
2022/06/19 05:48:18;;;;;;;;;1.33;0.67;;;;;22.00;49.34;98426.03;4942771;28;108952;-58
2022/06/19 05:50:45;;;;;;;;;2.00;2.00;;;;;22.01;48.85;98432.38;4933033;28;102376;-58
2022/06/19 05:53:13;;;;;;;;;2.67;2.67;;;;;22.01;49.21;98432.38;4936222;28;102969;-58
2022/06/19 05:55:40;;;;;;;;;2.67;1.67;;;;;22.02;48.86;98429.31;4944910;28;102282;-58
2022/06/19 05:58:07;;;;;;;;;2.33;1.67;;;;;22.01;48.70;98430.47;4942406;28;104657;-58
2022/06/19 06:00:34;;;;;;;;;2.00;2.00;;;;;22.01;49.20;98427.69;4938501;28;102597;-58
2022/06/19 06:03:01;;;;;;;;;3.00;2.00;;;;;22.02;48.73;98423.81;4947256;28;102335;-57
2022/06/19 06:05:28;;;;;;;;;3.00;3.00;;;;;22.03;48.89;98414.47;4942658;28;102624;-58
2022/06/19 06:07:56;;;;;;;;;2.00;2.00;;;;;22.04;48.52;98415.28;4935512;28;104963;-58
2022/06/19 06:10:23;;;;;;;;;2.00;2.00;;;;;22.04;48.98;98415.28;4937613;28;102504;-59
2022/06/19 06:12:50;;;;;;;;;3.00;2.33;;;;;22.04;48.83;98416.13;4941278;28;102412;-58
2022/06/19 06:15:17;;;;;;;;;2.00;2.00;;;;;22.05;48.96;98411.44;4930470;28;102581;-58
2022/06/19 06:17:44;;;;;;;;;1.67;1.67;;;;;22.04;48.57;98416.13;4936643;28;104066;-58
2022/06/19 06:20:11;;;;;;;;;1.00;1.00;;;;;22.03;48.44;98403.44;4929774;28;102214;-58
2022/06/19 06:22:39;;;;;;;;;1.33;1.33;;;;;22.05;48.76;98412.28;4938725;28;102123;-58
2022/06/19 06:25:06;;;;;;;;;2.00;2.00;;;;;22.05;48.88;98406.75;4938922;28;102545;-57
2022/06/19 06:27:33;;;;;;;;;2.00;2.00;;;;;22.04;48.62;98396.84;4930740;28;104111;-58
2022/06/19 06:30:00;;;;;;;;;3.00;3.00;;;;;22.05;48.70;98390.25;4926469;28;101942;-57
2022/06/19 06:32:27;;;;;;;;;2.00;2.00;;;;;22.04;48.56;98380.31;4945481;28;102545;-57
2022/06/19 06:34:54;;;;;;;;;2.67;2.00;;;;;22.05;48.88;98381.16;4945486;28;102629;-57
2022/06/19 06:37:22;;;;;;;;;1.67;1.67;;;;;22.06;49.01;98377.31;4975047;28;104236;-57
2022/06/19 06:39:49;;;;;;;;;2.67;2.67;;;;;22.05;48.80;98368.22;4934914;28;102302;-57
2022/06/19 06:42:16;;;;;;;;;2.00;2.00;;;;;22.06;48.77;98375.38;4936386;28;102159;-57
2022/06/19 06:44:43;;;;;;;;;1.33;1.33;;;;;22.06;49.22;98364.34;4943235;28;102212;-57
2022/06/19 06:47:10;;;;;;;;;2.00;2.00;;;;;22.07;48.85;98374.25;4940854;28;104105;-57
2022/06/19 06:49:37;;;;;;;;;3.00;2.00;;;;;22.08;48.84;98383.34;4936690;28;102177;-57
2022/06/19 06:52:08;;;;;;;;;2.00;2.00;;;;;22.08;48.87;98378.66;4942921;28;102138;-57
2022/06/19 06:54:38;;;;;;;;;3.00;2.00;;;;;22.10;48.82;98386.66;4941253;28;102442;-57
2022/06/19 06:57:06;;;;;;;;;2.00;2.00;;;;;22.10;48.48;98386.66;4943226;28;104230;-57
2022/06/19 06:59:34;;;;;;;;;1.67;1.33;;;;;22.10;48.76;98387.47;4946346;28;102340;-57
2022/06/19 07:02:01;;;;;;;;;1.00;1.00;;;;;22.10;49.00;98381.13;4943597;28;102340;-57
2022/06/19 07:04:28;;;;;;;;;2.00;2.00;;;;;22.10;48.75;98379.22;4935165;28;102130;-58
2022/06/19 07:06:56;;;;;;;;;2.00;2.00;;;;;22.10;48.85;98370.94;4933784;28;104182;-58
2022/06/19 07:09:23;;;;;;;;;2.00;2.00;;;;;22.12;48.72;98373.41;4945567;28;104906;-59
2022/06/19 07:11:50;;;;;;;;;2.00;2.00;;;;;22.12;48.67;98378.91;4941186;28;102627;-57
2022/06/19 07:14:18;;;;;;;;;2.00;2.00;;;;;22.12;48.90;98382.50;4941216;28;102259;-57
2022/06/19 07:16:45;;;;;;;;;2.00;2.00;;;;;22.12;48.73;98388.00;4943211;28;104077;-57
2022/06/19 07:19:12;;;;;;;;;1.00;1.00;;;;;22.14;48.65;98382.22;4937054;28;102462;-57
2022/06/19 07:21:39;;;;;;;;;2.00;2.00;;;;;22.13;48.58;98375.88;4935550;28;102414;-57
2022/06/19 07:24:06;;;;;;;;;2.00;2.00;;;;;22.14;48.43;98377.53;4945815;28;102258;-57
2022/06/19 07:26:34;;;;;;;;;1.00;1.00;;;;;22.13;48.48;98370.38;4942446;28;104222;-57
2022/06/19 07:29:01;;;;;;;;;1.67;1.67;;;;;22.14;48.70;98377.53;4946730;28;102322;-57
2022/06/19 07:31:33;;;;;;;;;2.00;2.00;;;;;22.15;48.43;98379.16;4934639;28;102375;-57
2022/06/19 07:34:00;;;;;;;;;2.00;2.00;;;;;22.14;48.63;98377.53;4939062;28;102883;-57
2022/06/19 07:36:27;;;;;;;;;2.00;2.00;;;;;22.15;48.72;98373.66;4934471;28;104026;-57
2022/06/19 07:38:54;;;;;;;;;2.00;2.00;;;;;22.16;48.72;98374.47;4937799;28;102127;-58
2022/06/19 07:41:21;;;;;;;;;2.00;2.00;;;;;22.16;48.72;98372.56;4942279;28;102425;-57
2022/06/19 07:43:50;;;;;;;;;2.00;2.00;;;;;22.16;48.43;98368.97;4942987;28;102632;-57
2022/06/19 07:46:18;;;;;;;;;1.00;1.00;;;;;22.16;48.60;98364.28;4940197;28;104081;-57
2022/06/19 07:51:31;;;;;;;;;1.67;0.67;;;;;22.18;48.71;98367.59;4935800;28;102138;-57
2022/06/19 07:53:59;;;;;;;;;1.33;0.67;;;;;22.18;48.37;98367.59;4938894;28;102428;-58
2022/06/19 07:56:26;;;;;;;;;1.00;1.00;;;;;22.19;48.43;98369.25;4941095;28;104064;-58
2022/06/19 07:58:53;;;;;;;;;1.00;1.00;;;;;22.20;48.41;98364.56;4944771;28;105750;-58
2022/06/19 08:01:20;;;;;;;;;2.00;2.00;;;;;22.21;48.72;98349.69;4937741;28;102669;-58
2022/06/19 08:03:47;;;;;;;;;1.67;1.67;;;;;22.20;48.67;98348.84;4940916;28;102610;-58
2022/06/19 08:06:17;;;;;;;;;2.00;2.00;;;;;22.22;48.60;98334.81;4944146;28;104062;-58
2022/06/19 08:08:44;;;;;;;;;1.67;1.67;;;;;22.22;48.53;98341.16;4947851;28;102474;-58
2022/06/19 08:11:12;;;;;;;;;1.67;1.67;;;;;22.23;48.40;98336.47;4945391;28;102407;-58
2022/06/19 08:13:39;;;;;;;;;1.67;1.67;;;;;22.23;48.49;98334.53;4945122;28;102697;-58
2022/06/19 08:16:07;;;;;;;;;3.00;2.00;;;;;22.24;48.63;98327.91;4941561;28;104186;-58
2022/06/19 08:18:35;;;;;;;;;2.00;1.67;;;;;22.24;48.56;98344.41;4944350;28;102582;-57
2022/06/19 08:21:02;;;;;;;;;1.33;1.33;;;;;22.25;48.55;98328.72;4969089;28;102574;-57
2022/06/19 08:23:29;;;;;;;;;0.67;0.67;;;;;22.26;48.68;98335.88;4944058;28;102567;-57
2022/06/19 08:25:58;;;;;;;;;2.67;2.67;;;;;22.27;48.46;98328.44;4946932;28;104242;-58
2022/06/19 08:28:34;;;;;;;;;2.00;1.67;;;;;22.27;48.36;98326.53;4929574;28;102230;-58
2022/06/19 08:31:02;;;;;;;;;1.67;1.67;;;;;22.29;48.48;98332.56;4933914;28;102483;-58
2022/06/19 08:33:29;;;;;;;;;1.33;1.33;;;;;22.30;48.64;98330.63;4939174;28;102181;-58
2022/06/19 08:35:59;;;;;;;;;1.67;1.67;;;;;22.31;48.58;98332.28;4941375;28;104080;-58
2022/06/19 08:38:30;;;;;;;;;1.67;1.67;;;;;22.32;48.37;98320.16;4955785;28;102134;-58
2022/06/19 08:41:11;;;;;;;;;2.67;2.33;;;;;22.32;48.35;98328.44;4946225;28;101900;-58
2022/06/19 08:43:45;;;;;;;;;1.00;1.00;;;;;22.32;48.56;98323.75;4942582;28;102256;-58
2022/06/19 08:46:30;;;;;;;;;0.67;0.67;;;;;22.33;48.30;98324.56;4937198;28;104074;-57
2022/06/19 08:49:06;;;;;;;;;2.00;2.00;;;;;22.32;48.26;98321.00;4937108;28;103533;-58
2022/06/19 08:51:33;;;;;;;;;2.00;1.67;;;;;22.34;48.34;98331.72;4926391;28;102159;-58
2022/06/19 08:54:19;;;;;;;;;2.00;2.00;;;;;22.35;48.37;98331.44;4945706;28;102063;-58
2022/06/19 08:56:53;;;;;;;;;1.67;1.67;;;;;22.35;48.21;98331.44;4937916;28;104146;-58
2022/06/19 08:59:36;;;;;;;;;1.00;1.00;;;;;22.36;48.45;98330.34;4920257;28;102202;-58
2022/06/19 09:02:34;;;;;;;;;1.00;1.00;;;;;22.37;48.27;98331.16;4930159;28;102351;-57
2022/06/19 09:05:36;;;;;;;;;0.67;0.67;;;;;22.38;48.32;98336.38;4933453;28;102322;-58
2022/06/19 09:08:34;;;;;;;;;2.00;2.00;;;;;22.38;48.28;98332.81;4939597;28;108806;-58
2022/06/19 09:11:20;;;;;;;;;1.67;1.67;;;;;22.38;48.25;98335.56;4931216;28;102111;-58
2022/06/19 09:14:23;;;;;;;;;3.00;2.00;;;;;22.38;48.49;98325.34;4939628;28;102482;-58
2022/06/19 09:17:12;;;;;;;;;1.67;1.67;;;;;22.39;48.32;98323.41;4937447;28;102475;-58
2022/06/19 09:19:51;;;;;;;;;2.00;2.00;;;;;22.40;48.42;98316.81;4927656;28;108868;-58
2022/06/19 09:22:35;;;;;;;;;1.67;1.67;;;;;22.41;48.49;98332.22;4941519;28;102203;-58
2022/06/19 09:25:23;;;;;;;;;2.00;2.00;;;;;22.37;48.13;98317.38;4943567;28;102628;-58
2022/06/19 09:28:01;;;;;;;;;0.67;0.67;;;;;22.43;48.43;98310.72;4938597;28;102224;-58
2022/06/19 09:30:34;;;;;;;;;1.67;1.67;;;;;22.44;48.39;98312.38;4931961;28;108978;-58
2022/06/19 09:33:06;;;;;;;;;1.00;1.00;;;;;22.45;48.19;98305.75;4950935;28;102230;-58
2022/06/19 09:35:39;;;;;;;;;2.00;2.00;;;;;22.46;48.17;98299.16;4941123;28;102256;-58
2022/06/19 09:38:21;;;;;;;;;2.00;2.00;;;;;22.46;48.43;98301.91;4943135;28;102528;-58
2022/06/19 09:40:57;;;;;;;;;1.00;1.00;;;;;22.47;48.33;98293.34;4938810;28;104046;-58
2022/06/19 09:43:26;;;;;;;;;2.00;1.00;;;;;22.47;48.18;98298.84;4936010;28;102410;-58
2022/06/19 09:45:59;;;;;;;;;2.00;2.00;;;;;22.47;48.18;98304.34;4938955;28;102280;-58
2022/06/19 09:48:51;;;;;;;;;2.00;2.00;;;;;22.49;48.25;98287.53;4935606;28;105162;-60
2022/06/19 09:51:36;;;;;;;;;2.00;2.00;;;;;22.49;48.34;98284.78;4933293;28;104142;-58
2022/06/19 09:54:16;;;;;;;;;1.00;1.00;;;;;22.49;48.27;98279.28;4923646;28;102442;-58
2022/06/19 09:56:50;;;;;;;;;0.67;0.67;;;;;22.49;48.08;98279.28;4934307;28;102173;-58
2022/06/19 09:59:26;;;;;;;;;2.00;2.00;;;;;22.49;48.19;98282.03;4921540;28;102285;-58
2022/06/19 10:01:57;;;;;;;;;2.00;2.00;;;;;22.49;48.17;98280.09;4948442;28;108885;-58
2022/06/19 10:04:35;;;;;;;;;2.00;2.00;;;;;22.49;48.11;98274.59;4931100;28;102401;-58
2022/06/19 10:07:06;;;;;;;;;2.33;2.33;;;;;22.51;48.36;98274.31;4910249;28;102315;-58
2022/06/19 10:09:43;;;;;;;;;1.67;1.67;;;;;22.52;48.12;98271.25;4956471;28;102462;-58
2022/06/19 10:12:14;;;;;;;;;1.67;1.67;;;;;22.52;48.40;98271.25;4952151;28;104047;-57
2022/06/19 10:14:46;;;;;;;;;1.67;1.67;;;;;22.52;48.29;98257.47;4926786;28;102491;-58
2022/06/19 10:17:22;;;;;;;;;1.67;1.67;;;;;22.54;48.15;98265.47;4952111;28;102122;-58
2022/06/19 10:20:12;;;;;;;;;1.00;1.00;;;;;22.54;48.15;98257.19;4943745;28;102539;-57
2022/06/19 10:22:52;;;;;;;;;3.00;2.00;;;;;22.54;48.19;98254.44;4930851;28;109111;-57
2022/06/19 10:25:49;;;;;;;;;1.67;1.67;;;;;22.57;48.06;98256.63;4913278;28;102314;-58
2022/06/19 10:28:19;;;;;;;;;1.00;1.00;;;;;22.57;48.31;98253.88;4934556;28;102320;-57
2022/06/19 10:31:05;;;;;;;;;1.00;1.00;;;;;22.58;48.41;98258.28;4939807;28;102367;-58
2022/06/19 10:34:15;;;;;;;;;1.00;0.67;;;;;22.58;48.04;98242.56;4937913;28;109034;-58
2022/06/19 10:36:51;;;;;;;;;1.00;1.00;;;;;22.59;48.20;98252.47;4937488;28;102488;-58
2022/06/19 10:39:21;;;;;;;;;1.00;1.00;;;;;22.59;48.02;98240.63;4931687;28;102245;-58
2022/06/19 10:42:06;;;;;;;;;1.67;1.67;;;;;22.61;48.22;98238.38;4942358;28;102087;-58
2022/06/19 10:45:05;;;;;;;;;1.67;1.67;;;;;22.61;48.03;98230.13;4939952;28;108866;-58
2022/06/19 10:47:58;;;;;;;;;1.00;1.00;;;;;22.64;48.08;98235.09;4916108;28;102183;-58
2022/06/19 10:50:32;;;;;;;;;0.67;0.67;;;;;22.63;48.17;98233.44;4942837;28;102188;-58
2022/06/19 10:53:27;;;;;;;;;1.00;0.67;;;;;22.64;47.82;98232.31;4937380;28;102641;-58
2022/06/19 10:55:57;;;;;;;;;0.67;0.67;;;;;22.63;48.18;98234.25;4967336;28;105544;-58
2022/06/19 10:58:25;;;;;;;;;2.00;1.00;;;;;22.64;48.07;98226.81;4955496;28;102312;-58
2022/06/19 11:00:56;;;;;;;;;1.67;1.67;;;;;22.64;48.15;98216.63;4933482;28;102170;-58
2022/06/19 11:06:16;;;;;;;;;1.33;1.00;;;;;22.65;47.97;98217.41;4933029;28;108834;-58
2022/06/19 11:08:45;;;;;;;;;1.00;1.00;;;;;22.66;47.92;98221.81;4931076;28;102290;-58
2022/06/19 11:11:16;;;;;;;;;2.00;1.67;;;;;22.66;48.07;98202.53;4933794;28;102383;-58
2022/06/19 11:14:09;;;;;;;;;0.67;0.67;;;;;22.66;48.08;98219.06;4940215;28;102584;-58
2022/06/19 11:16:59;;;;;;;;;2.00;2.00;;;;;22.69;48.29;98216.56;4938782;28;109648;-58
2022/06/19 11:19:49;;;;;;;;;1.00;0.67;;;;;22.69;48.13;98213.81;4943858;28;102169;-58
2022/06/19 11:22:41;;;;;;;;;2.00;1.00;;;;;22.72;48.18;98223.47;4908332;28;102731;-58
2022/06/19 11:25:20;;;;;;;;;2.00;2.00;;;;;22.73;48.35;98222.38;4926241;28;102249;-58
2022/06/19 11:27:51;;;;;;;;;1.00;1.00;;;;;22.73;48.04;98233.38;4930365;28;104027;-58
2022/06/19 11:30:45;;;;;;;;;1.33;1.33;;;;;22.73;47.67;98225.13;4970970;28;102174;-58
2022/06/19 11:33:17;;;;;;;;;1.00;1.00;;;;;22.75;48.05;98213.78;4930816;28;102472;-58
2022/06/19 11:35:56;;;;;;;;;2.00;1.00;;;;;22.74;47.90;98210.19;4931806;28;102210;-58
2022/06/19 11:38:43;;;;;;;;;1.00;1.00;;;;;22.75;47.84;98209.09;4932969;28;103815;-58
2022/06/19 11:41:14;;;;;;;;;1.67;1.33;;;;;22.75;48.15;98194.47;4932177;28;102488;-58
2022/06/19 11:43:42;;;;;;;;;2.00;1.00;;;;;22.76;48.14;98201.66;4937315;28;102380;-58
2022/06/19 11:46:25;;;;;;;;;2.00;1.00;;;;;22.76;48.06;98193.38;4937639;28;102415;-58
2022/06/19 11:48:53;;;;;;;;;1.00;1.00;;;;;22.77;48.16;98186.75;4946901;28;104237;-58
2022/06/19 11:51:32;;;;;;;;;1.00;1.00;;;;;22.78;48.18;98188.41;4939699;28;102199;-58